Latest Coastal Weather Observations for Kingscote

IDS60701

Issued at 4:05 am CST Tuesday 29 July 2014 (issued every 10 minutes, with the page automatically refreshed every 10 minutes)

About coastal observations | Map of coastal stations | Coastal observations for SA | Marine services | Other Formats
Station Details ID: 022841 Name: KINGSCOTE AERO Lat: -35.71 Lon: 137.52 Height: 6.23 m
Data from the previous 72 hours. | See also: Recent months at Kingscote
Date/Time
CST
Temp

°C
Wind Pressure Rain
since 9am
mm
Weather Cloud Vis
km
Sea
Height
m
Swell
Dir
 
Speed
knots
Gust
knots
hPa Trend Height
m
Period
s
Dir
29/04:00am 14.5 WNW 17 23 1012.5 - 0.0 - Partly cloudy 5 - - - -
29/03:52am 14.6 WNW 16 22 1012.4 - 0.0 - Partly cloudy 5 - - - -
29/03:30am 14.9 WNW 15 23 1012.3 - 0.0 - Partly cloudy 10 - - - -
29/03:00am 14.6 NW 16 26 1012.1 - 0.0 - Mostly clear 10 - - - -
29/02:56am 14.7 NW 15 26 1012.0 - 0.0 - Partly cloudy 10 - - - -
29/02:30am 14.8 NW 13 18 1012.0 - 0.0 - Partly cloudy 10 - - - -
29/02:00am 14.7 NW 12 21 1012.3 - 0.0 - Partly cloudy 10 - - - -
29/01:30am 14.3 NW 13 19 1012.5 - 0.0 - Partly cloudy 10 - - - -
29/01:00am 14.4 NW 16 23 1012.8 - 0.0 - Partly cloudy 10 - - - -
29/12:30am 14.3 NW 17 24 1013.2 - 0.0 - Partly cloudy 10 - - - -
29/12:00am 14.3 NW 16 24 1013.4 - 0.0 - Cloudy 10 - - - -
 
Date/Time
CST
Temp

°C
Wind Pressure Rain
since 9am
mm
Weather Cloud Vis
km
Sea
Height
m
Swell
Dir
 
Speed
knots
Gust
knots
hPa Trend Height
m
Period
s
Dir
28/11:38pm 14.3 NW 16 26 1013.4 - 0.0 - Partly cloudy 10 - - - -
28/11:30pm 14.5 NW 15 24 1013.5 - 0.0 - Partly cloudy 10 - - - -
28/11:00pm 14.5 NNW 14 22 1013.9 - 0.0 - Partly cloudy 10 - - - -
28/10:52pm 14.6 NW 15 25 1013.9 - 0.0 - Partly cloudy 10 - - - -
28/10:30pm 14.6 NW 15 21 1014.2 - 0.0 - Partly cloudy 10 - - - -
28/10:00pm 14.5 NW 16 22 1014.2 - 0.0 - Partly cloudy 10 - - - -
28/09:30pm 14.6 NW 17 23 1014.3 - 0.0 - Partly cloudy 10 - - - -
28/09:00pm 14.7 NW 14 22 1014.6 - 0.0 - Cloudy 10 - - - -
28/08:30pm 14.6 NW 13 18 1014.5 - 0.0 - Partly cloudy 10 - - - -
28/08:00pm 14.6 NW 12 17 1014.5 - 0.0 - Partly cloudy 10 - - - -
28/07:30pm 14.5 NW 11 15 1014.4 - 0.0 - Partly cloudy 10 - - - -
28/07:00pm 14.5 NW 11 15 1014.2 - 0.0 - Partly cloudy 10 - - - -
28/06:30pm 14.9 NW 13 19 1014.1 - 0.0 - Cloudy 10 - - - -
28/06:00pm 14.8 NW 13 19 1014.1 - 0.0 - Mostly clear 10 - - - -
28/05:30pm 14.9 NW 14 19 1014.0 - 0.0 - Partly cloudy 10 - - - -
28/05:00pm 14.9 NW 15 21 1014.1 - 0.0 - - 10 - - - -
28/04:30pm 15.6 NW 14 19 1013.8 - 0.0 - Partly cloudy 10 - - - -
28/04:00pm 15.8 NW 17 25 1014.0 - 0.0 - Partly cloudy 10 - - - -
28/03:30pm 15.7 NW 17 25 1013.9 - 0.0 - Partly cloudy 10 - - - -
28/03:00pm 15.7 WNW 21 28 1014.0 - 0.0 - Cloudy 10 - - - -
28/02:54pm 15.6 WNW 18 28 1014.0 - 0.0 - Partly cloudy 10 - - - -
28/02:30pm 16.1 WNW 15 23 1013.9 - 0.0 - Partly cloudy 10 - - - -
28/02:00pm 16.7 NW 17 25 1014.0 - 0.0 - Partly cloudy 10 - - - -
28/01:30pm 17.0 WNW 18 24 1014.5 - 0.0 - Partly cloudy 10 - - - -
28/01:16pm 16.7 NW 16 26 1014.7 - 0.0 - Partly cloudy 10 - - - -
28/01:00pm 17.1 WNW 19 25 1015.1 - 0.0 - Partly cloudy 10 - - - -
28/12:30pm 16.6 WNW 17 24 1015.6 - 0.0 - Partly cloudy 10 - - - -
28/12:00pm 16.9 WNW 18 24 1016.0 - 0.0 - Mostly clear 10 - - - -
28/11:30am 16.6 NW 18 24 1016.2 - 0.0 - Partly cloudy 10 - - - -
28/11:00am 16.1 NW 12 16 1016.6 - 0.0 - Partly cloudy 10 - - - -
28/10:30am 15.2 NW 13 16 1016.7 - 0.0 - Partly cloudy 10 - - - -
28/10:00am 15.4 NW 11 15 1016.8 - 0.0 - Partly cloudy 10 - - - -
28/09:30am 14.9 NNW 9 14 1017.1 - 0.0 - Partly cloudy 10 - - - -
28/09:00am 14.2 NW 8 10 1017.0 - 0.2 - - 10 - - - -
28/08:30am 12.7 NW 7 9 1016.8 - 0.2 - - 10 - - - -
28/08:00am 11.2 NW 8 11 1016.8 - 0.2 - - 10 - - - -
28/07:30am 9.7 NW 5 6 1016.6 - 0.2 - - 10 - - - -
28/07:00am 8.9 NW 5 6 1016.3 - 0.2 - - 7 - - - -
28/06:45am 8.2 NNW 5 6 1016.1 - 0.2 - - 10 - - - -
28/06:30am 7.5 NNW 5 6 1016.0 - 0.2 - - 4 - - - -
28/06:12am 7.0 NNW 5 6 1016.0 - 0.2 - - 5 - - - -
28/06:00am 8.1 NNW 5 6 1015.9 - 0.2 - - 10 - - - -
28/05:59am 8.0 NNW 5 6 1016.0 - 0.2 - - 10 - - - -
28/05:30am 6.2 SW 5 8 1015.9 - 0.2 - - 2 - - - -
28/05:00am 6.0 WNW 3 4 1016.0 - 0.2 - - 2 - - - -
28/04:45am 7.3 NNW 6 7 1016.0 - 0.2 - - 5 - - - -
28/04:30am 8.9 NNW 4 5 1016.1 - 0.2 - - 10 - - - -
28/04:09am 8.3 N 4 4 1016.3 - 0.0 - - 10 - - - -
28/04:00am 7.5 N 3 4 1016.4 - 0.0 - - 6 - - - -
28/03:30am 7.7 CALM 0 0 1016.4 - 0.0 - - 0.6 - - - -
28/03:00am 8.1 NE 2 5 1016.3 - 0.0 - - 2 - - - -
28/02:58am 7.8 NNE 2 5 1016.3 - 0.0 - - 4 - - - -
28/02:52am 6.9 CALM 0 0 1016.4 - 0.0 - - 10 - - - -
28/02:30am 7.7 CALM 0 0 1016.2 - 0.0 - - 2 - - - -
28/02:00am 8.5 CALM 0 0 1016.3 - 0.0 - - 5 - - - -
28/01:52am 9.8 CALM 0 0 1016.5 - 0.0 - - 5 - - - -
28/01:30am 10.7 N 3 5 1016.4 - 0.0 - - 10 - - - -
28/01:00am 11.0 N 5 6 1016.6 - 0.0 - - 10 - - - -
28/12:30am 10.4 CALM 0 0 1017.0 - 0.0 - Partly cloudy 10 - - - -
28/12:00am 11.2 CALM 0 3 1017.3 - 0.0 - Partly cloudy 10 - - - -
 
Date/Time
CST
Temp

°C
Wind Pressure Rain
since 9am
mm
Weather Cloud Vis
km
Sea
Height
m
Swell
Dir
 
Speed
knots
Gust
knots
hPa Trend Height
m
Period
s
Dir
27/11:30pm 11.2 NW 3 4 1017.2 - 0.0 - - 10 - - - -
27/11:00pm 11.4 NW 5 7 1017.2 - 0.0 - - 10 - - - -
27/10:30pm 11.6 NW 5 6 1017.5 - 0.0 - - 10 - - - -
27/10:00pm 11.6 NW 5 6 1017.6 - 0.0 - - 10 - - - -
27/09:30pm 12.2 NW 5 7 1017.6 - 0.0 - - 10 - - - -
27/09:00pm 13.1 NW 7 8 1017.7 - 0.0 - - 10 - - - -
27/08:30pm 13.3 NNW 6 11 1017.5 - 0.0 - - 10 - - - -
27/08:00pm 13.4 NNW 6 8 1017.6 - 0.0 - - 10 - - - -
27/07:30pm 13.8 NNW 6 9 1017.6 - 0.0 - - 10 - - - -
27/07:00pm 14.3 NNW 8 11 1017.7 - 0.0 - - 10 - - - -
27/06:30pm 13.7 NNW 6 10 1017.5 - 0.0 - - 10 - - - -
27/06:00pm 13.7 N 6 8 1017.4 - 0.0 - - 10 - - - -
27/05:30pm 14.2 NNW 5 8 1017.2 - 0.0 - - 10 - - - -
27/05:00pm 15.2 N 8 14 1016.8 - 0.0 - - 10 - - - -
27/04:30pm 15.4 NNW 10 15 1017.0 - 0.0 - - 10 - - - -
27/04:00pm 15.6 NNW 12 17 1017.1 - 0.0 - - 10 - - - -
27/03:30pm 16.6 NNW 11 17 1017.1 - 0.0 - - 10 - - - -
27/03:00pm 15.2 NNW 12 17 1017.2 - 0.0 - - 10 - - - -
27/02:30pm 14.9 NNW 9 15 1017.2 - 0.0 - - 10 - - - -
27/02:00pm 14.8 NNW 13 18 1017.6 - 0.0 - - 10 - - - -
27/01:30pm 14.8 N 12 19 1018.1 - 0.0 - - 10 - - - -
27/01:00pm 14.7 NNW 14 20 1018.7 - 0.0 - - 10 - - - -
27/12:30pm 15.2 NNW 14 23 1019.2 - 0.0 - - 10 - - - -
27/12:00pm 14.9 N 14 22 1019.7 - 0.0 - - 10 - - - -
27/11:30am 15.4 NNW 13 19 1020.4 - 0.0 - - 10 - - - -
27/11:00am 14.2 NNW 13 20 1020.7 - 0.0 - - 10 - - - -
27/10:30am 14.4 NNW 15 20 1020.9 - 0.0 - - 10 - - - -
27/10:00am 13.9 NNW 14 20 1020.9 - 0.0 - - 10 - - - -
27/09:30am 13.5 NNW 13 19 1020.8 - 0.0 - - 10 - - - -
27/09:08am 13.4 NNW 13 19 1021.1 - 0.0 - - 10 - - - -
27/09:00am 13.3 NNW 12 17 1021.1 - 0.0 - - 6 - - - -
27/08:52am 13.2 NNW 12 20 1021.3 - 0.0 - - 5 - - - -
27/08:30am 13.1 NNW 12 17 1021.2 - 0.0 - - 10 - - - -
27/08:00am 12.7 NNW 10 15 1021.5 - 0.0 - - 10 - - - -
27/07:30am 12.2 N 9 15 1021.4 - 0.0 - - 10 - - - -
27/07:00am 11.9 N 8 12 1021.5 - 0.0 - - 10 - - - -
27/06:30am 12.2 N 8 12 1021.5 - 0.0 - - 10 - - - -
27/06:00am 12.0 NNW 8 11 1021.5 - 0.0 - - 10 - - - -
27/05:30am 12.1 NNW 8 12 1022.0 - 0.0 - - 10 - - - -
27/05:00am 11.8 NNW 7 11 1021.8 - 0.0 - - 10 - - - -
27/04:30am 11.4 NNW 6 8 1021.8 - 0.0 - - 10 - - - -
27/04:00am 11.3 N 6 10 1022.1 - 0.0 - - 10 - - - -
27/03:30am 11.2 NNW 5 7 1022.5 - 0.0 - - 10 - - - -
27/03:00am 11.8 N 8 10 1022.7 - 0.0 - - 10 - - - -
27/02:30am 11.7 N 8 10 1022.9 - 0.0 - Partly cloudy 10 - - - -
27/02:00am 12.2 N 5 7 1023.4 - 0.0 - Cloudy 10 - - - -
27/01:30am 12.1 N 4 6 1023.5 - 0.0 - Cloudy 10 - - - -
27/01:00am 12.2 N 7 11 1023.4 - 0.0 - Partly cloudy 10 - - - -
27/12:30am 12.1 NNW 9 11 1023.6 - 0.0 - - 10 - - - -
27/12:00am 11.6 NNW 6 11 1023.9 - 0.0 - - 10 - - - -
 
Date/Time
CST
Temp

°C
Wind Pressure Rain
since 9am
mm
Weather Cloud Vis
km
Sea
Height
m
Swell
Dir
 
Speed
knots
Gust
knots
hPa Trend Height
m
Period
s
Dir
26/11:30pm 11.4 N 5 9 1024.1 - 0.0 - Partly cloudy 10 - - - -
26/11:00pm 11.2 N 5 8 1024.4 - 0.0 - - 10 - - - -
26/10:30pm 10.5 N 5 7 1024.4 - 0.0 - - 10 - - - -
26/10:00pm 9.4 CALM 0 0 1024.6 - 0.0 - - 10 - - - -
26/09:30pm 10.0 N 3 5 1024.9 - 0.0 - - 10 - - - -
26/09:00pm 10.4 N 4 5 1024.9 - 0.0 - - 10 - - - -
26/08:30pm 11.0 N 4 6 1025.1 - 0.0 - - 10 - - - -
26/08:00pm 10.7 N 4 5 1025.1 - 0.0 - - 10 - - - -
26/07:30pm 11.0 N 4 5 1025.0 - 0.0 - - 10 - - - -
26/07:00pm 11.4 N 4 6 1025.1 - 0.0 - - 10 - - - -
26/06:30pm 11.6 N 5 7 1025.0 - 0.0 - - 10 - - - -
26/06:00pm 12.4 N 4 6 1024.9 - 0.0 - - 10 - - - -
26/05:30pm 13.2 NNW 5 6 1025.0 - 0.0 - - 10 - - - -
26/05:00pm 14.2 NW 8 11 1025.0 - 0.0 - - 10 - - - -
26/04:30pm 14.9 NW 9 12 1025.1 - 0.0 - - 10 - - - -
26/04:00pm 15.5 NW 10 15 1025.0 - 0.0 - - 10 - - - -
26/03:30pm 15.7 NW 12 15 1025.0 - 0.0 - - 10 - - - -
26/03:00pm 15.6 NW 12 18 1024.8 - 0.0 - - 10 - - - -
26/02:30pm 16.1 NW 11 14 1024.8 - 0.0 - - 10 - - - -
26/02:00pm 16.0 NW 12 16 1024.8 - 0.0 - Partly cloudy 10 - - - -
26/01:30pm 15.9 NNW 11 16 1024.8 - 0.0 - Partly cloudy 10 - - - -
26/01:00pm 16.0 NNW 12 16 1025.1 - 0.0 - - 10 - - - -
26/12:30pm 16.0 NW 11 16 1025.5 - 0.0 - Partly cloudy 10 - - - -
26/12:00pm 15.6 NNW 12 17 1026.1 - 0.0 - Cloudy 10 - - - -
26/11:30am 15.2 NNW 12 18 1026.4 - 0.0 - Partly cloudy 10 - - - -
26/11:00am 13.6 NW 8 13 1026.7 - 0.0 - Partly cloudy 10 - - - -
26/10:30am 13.6 NNW 9 12 1026.9 - 0.0 - Partly cloudy 10 - - - -
26/10:00am 11.2 CALM 0 0 1027.0 - 0.0 - Cloudy 10 - - - -
26/09:30am 10.0 CALM 0 0 1026.9 - 0.0 - Partly cloudy 10 - - - -
26/09:00am 8.6 CALM 0 0 1026.8 - 0.6 - Mostly clear 10 - - - -
26/08:30am 6.3 CALM 0 0 1026.7 - 0.6 - Partly cloudy 10 - - - -
26/08:00am 4.6 CALM 0 0 1026.4 - 0.6 - Partly cloudy 10 - - - -
26/07:42am 4.0 CALM 0 0 1026.4 - 0.6 - - 10 - - - -
26/07:30am 3.5 CALM 0 0 1026.2 - 0.6 - - 5 - - - -
26/07:00am 3.9 CALM 0 2 1025.6 - 0.6 - - 3 - - - -
26/06:44am 4.2 CALM 0 0 1025.4 - 0.6 - - 5 - - - -
26/06:40am 4.4 CALM 0 0 1025.4 - 0.6 - - 10 - - - -
26/06:30am 4.1 CALM 0 0 1025.3 - 0.6 - - 5 - - - -
26/06:00am 4.5 CALM 0 0 1025.1 - 0.6 - - 3 - - - -
26/05:30am 4.8 CALM 0 0 1024.8 - 0.6 - - 0.7 - - - -
26/05:00am 5.4 CALM 0 0 1024.6 - 0.6 - - 0.9 - - - -
26/04:42am 5.7 CALM 0 0 1024.5 - 0.6 - - 5 - - - -
26/04:34am 5.7 CALM 0 0 1024.6 - 0.6 - - 10 - - - -
26/04:30am 5.9 CALM 0 0 1024.6 - 0.6 - - 10 - - - -

Other Formats:

Comma delimited format used in spreadsheet applications
http://www.bom.gov.au/fwo/IDS60701/IDS60701.95807.axf

JavaScript Object Notation format (JSON) in row-major order
http://www.bom.gov.au/fwo/IDS60701/IDS60701.95807.json